sensor_id;sensor_type;location;lat;lon;timestamp;P1;durP1;ratioP1;P2;durP2;ratioP2
16113;SDS011;8161;-33.910;151.156;2023-05-16T00:00:01;5.40;;;3.08;;
16113;SDS011;8161;-33.910;151.156;2023-05-16T00:02:31;5.03;;;2.80;;
16113;SDS011;8161;-33.910;151.156;2023-05-16T00:04:59;4.30;;;2.90;;
16113;SDS011;8161;-33.910;151.156;2023-05-16T00:07:26;4.68;;;2.60;;
16113;SDS011;8161;-33.910;151.156;2023-05-16T00:09:53;4.72;;;2.90;;
16113;SDS011;8161;-33.910;151.156;2023-05-16T00:12:21;4.18;;;2.42;;
16113;SDS011;8161;-33.910;151.156;2023-05-16T00:14:48;4.68;;;3.00;;
16113;SDS011;8161;-33.910;151.156;2023-05-16T00:17:16;4.70;;;2.47;;
16113;SDS011;8161;-33.910;151.156;2023-05-16T00:19:45;4.43;;;2.47;;
16113;SDS011;8161;-33.910;151.156;2023-05-16T00:22:23;3.75;;;2.30;;
16113;SDS011;8161;-33.910;151.156;2023-05-16T00:24:50;4.43;;;2.30;;
16113;SDS011;8161;-33.910;151.156;2023-05-16T00:27:18;6.60;;;2.80;;
16113;SDS011;8161;-33.910;151.156;2023-05-16T00:29:45;5.03;;;2.53;;
16113;SDS011;8161;-33.910;151.156;2023-05-16T00:32:12;3.88;;;2.22;;
16113;SDS011;8161;-33.910;151.156;2023-05-16T00:34:39;6.05;;;2.60;;
16113;SDS011;8161;-33.910;151.156;2023-05-16T00:37:06;3.97;;;2.42;;
16113;SDS011;8161;-33.910;151.156;2023-05-16T00:39:35;3.60;;;1.98;;
16113;SDS011;8161;-33.910;151.156;2023-05-16T00:42:02;6.00;;;2.25;;
16113;SDS011;8161;-33.910;151.156;2023-05-16T00:44:30;3.03;;;1.97;;
16113;SDS011;8161;-33.910;151.156;2023-05-16T00:46:57;7.25;;;2.00;;
16113;SDS011;8161;-33.910;151.156;2023-05-16T00:49:25;4.25;;;1.95;;
16113;SDS011;8161;-33.910;151.156;2023-05-16T00:51:53;5.03;;;2.03;;
16113;SDS011;8161;-33.910;151.156;2023-05-16T00:54:21;4.43;;;1.95;;
16113;SDS011;8161;-33.910;151.156;2023-05-16T00:56:53;2.67;;;1.70;;
16113;SDS011;8161;-33.910;151.156;2023-05-16T00:59:21;4.28;;;1.42;;
16113;SDS011;8161;-33.910;151.156;2023-05-16T01:01:50;1.60;;;1.35;;
16113;SDS011;8161;-33.910;151.156;2023-05-16T01:04:18;3.10;;;1.40;;
16113;SDS011;8161;-33.910;151.156;2023-05-16T01:06:46;5.03;;;1.40;;
16113;SDS011;8161;-33.910;151.156;2023-05-16T01:09:13;2.00;;;1.40;;
16113;SDS011;8161;-33.910;151.156;2023-05-16T01:25:29;2.00;;;1.40;;
16113;SDS011;8161;-33.910;151.156;2023-05-16T01:27:57;1.50;;;1.17;;
16113;SDS011;8161;-33.910;151.156;2023-05-16T01:30:25;3.45;;;1.20;;
16113;SDS011;8161;-33.910;151.156;2023-05-16T01:32:52;3.40;;;1.50;;
16113;SDS011;8161;-33.910;151.156;2023-05-16T01:35:19;5.53;;;1.40;;
16113;SDS011;8161;-33.910;151.156;2023-05-16T01:43:45;4.47;;;1.27;;
16113;SDS011;8161;-33.910;151.156;2023-05-16T01:46:15;2.05;;;1.20;;
16113;SDS011;8161;-33.910;151.156;2023-05-16T01:48:57;1.95;;;1.48;;
16113;SDS011;8161;-33.910;151.156;2023-05-16T01:51:54;2.00;;;1.27;;
16113;SDS011;8161;-33.910;151.156;2023-05-16T01:54:37;2.83;;;1.08;;
16113;SDS011;8161;-33.910;151.156;2023-05-16T01:57:08;3.20;;;1.20;;
16113;SDS011;8161;-33.910;151.156;2023-05-16T01:59:35;3.58;;;1.50;;
16113;SDS011;8161;-33.910;151.156;2023-05-16T02:02:03;2.22;;;1.27;;
16113;SDS011;8161;-33.910;151.156;2023-05-16T02:04:31;3.88;;;1.33;;
16113;SDS011;8161;-33.910;151.156;2023-05-16T02:06:58;1.20;;;1.10;;
16113;SDS011;8161;-33.910;151.156;2023-05-16T02:09:26;2.10;;;1.10;;
16113;SDS011;8161;-33.910;151.156;2023-05-16T02:11:53;1.85;;;1.30;;
16113;SDS011;8161;-33.910;151.156;2023-05-16T02:14:21;2.93;;;1.47;;
16113;SDS011;8161;-33.910;151.156;2023-05-16T02:16:50;1.92;;;1.25;;
16113;SDS011;8161;-33.910;151.156;2023-05-16T02:19:17;1.90;;;1.48;;
16113;SDS011;8161;-33.910;151.156;2023-05-16T02:21:45;2.63;;;1.23;;
16113;SDS011;8161;-33.910;151.156;2023-05-16T02:24:12;2.72;;;1.48;;
16113;SDS011;8161;-33.910;151.156;2023-05-16T02:26:39;1.33;;;1.10;;
16113;SDS011;8161;-33.910;151.156;2023-05-16T02:29:06;2.63;;;1.30;;
16113;SDS011;8161;-33.910;151.156;2023-05-16T02:31:35;1.42;;;1.10;;
16113;SDS011;8161;-33.910;151.156;2023-05-16T02:34:02;1.60;;;1.40;;
16113;SDS011;8161;-33.910;151.156;2023-05-16T02:36:29;4.30;;;1.58;;
16113;SDS011;8161;-33.910;151.156;2023-05-16T02:38:58;3.53;;;1.13;;
16113;SDS011;8161;-33.910;151.156;2023-05-16T02:41:26;2.87;;;1.00;;
16113;SDS011;8161;-33.910;151.156;2023-05-16T02:43:53;2.10;;;1.20;;
16113;SDS011;8161;-33.910;151.156;2023-05-16T02:46:25;2.55;;;1.20;;
16113;SDS011;8161;-33.910;151.156;2023-05-16T02:48:53;3.90;;;1.50;;
16113;SDS011;8161;-33.910;151.156;2023-05-16T02:51:21;2.50;;;1.40;;
16113;SDS011;8161;-33.910;151.156;2023-05-16T02:53:49;2.28;;;1.45;;
16113;SDS011;8161;-33.910;151.156;2023-05-16T02:56:17;2.33;;;1.27;;
16113;SDS011;8161;-33.910;151.156;2023-05-16T02:58:46;2.60;;;1.48;;
16113;SDS011;8161;-33.910;151.156;2023-05-16T03:01:15;4.43;;;1.30;;
16113;SDS011;8161;-33.910;151.156;2023-05-16T03:03:43;2.75;;;1.38;;
16113;SDS011;8161;-33.910;151.156;2023-05-16T03:06:10;2.38;;;1.30;;
16113;SDS011;8161;-33.910;151.156;2023-05-16T03:08:37;3.75;;;1.20;;
16113;SDS011;8161;-33.910;151.156;2023-05-16T03:11:04;2.35;;;1.20;;
16113;SDS011;8161;-33.910;151.156;2023-05-16T03:13:32;8.60;;;1.73;;
16113;SDS011;8161;-33.910;151.156;2023-05-16T03:15:59;2.87;;;1.30;;
16113;SDS011;8161;-33.910;151.156;2023-05-16T03:18:26;1.97;;;1.13;;
16113;SDS011;8161;-33.910;151.156;2023-05-16T03:20:54;3.03;;;1.55;;
16113;SDS011;8161;-33.910;151.156;2023-05-16T03:23:22;2.65;;;1.17;;
16113;SDS011;8161;-33.910;151.156;2023-05-16T03:25:49;4.90;;;1.60;;
16113;SDS011;8161;-33.910;151.156;2023-05-16T03:28:16;2.70;;;1.60;;
16113;SDS011;8161;-33.910;151.156;2023-05-16T03:30:43;3.67;;;1.45;;
16113;SDS011;8161;-33.910;151.156;2023-05-16T03:33:11;3.60;;;1.55;;
16113;SDS011;8161;-33.910;151.156;2023-05-16T03:35:38;3.00;;;1.53;;
16113;SDS011;8161;-33.910;151.156;2023-05-16T03:38:05;5.90;;;1.80;;
16113;SDS011;8161;-33.910;151.156;2023-05-16T03:40:34;4.43;;;1.60;;
16113;SDS011;8161;-33.910;151.156;2023-05-16T03:43:01;2.80;;;1.58;;
16113;SDS011;8161;-33.910;151.156;2023-05-16T03:45:29;4.22;;;1.48;;
16113;SDS011;8161;-33.910;151.156;2023-05-16T03:47:56;2.40;;;1.23;;
16113;SDS011;8161;-33.910;151.156;2023-05-16T03:50:23;2.60;;;1.52;;
16113;SDS011;8161;-33.910;151.156;2023-05-16T03:52:51;4.17;;;1.47;;
16113;SDS011;8161;-33.910;151.156;2023-05-16T03:55:19;2.75;;;1.80;;
16113;SDS011;8161;-33.910;151.156;2023-05-16T03:57:46;2.08;;;1.20;;
16113;SDS011;8161;-33.910;151.156;2023-05-16T04:00:14;2.07;;;1.10;;
16113;SDS011;8161;-33.910;151.156;2023-05-16T04:02:42;3.50;;;1.30;;
16113;SDS011;8161;-33.910;151.156;2023-05-16T04:05:09;2.97;;;1.50;;
16113;SDS011;8161;-33.910;151.156;2023-05-16T04:07:38;1.85;;;1.20;;
16113;SDS011;8161;-33.910;151.156;2023-05-16T04:10:05;2.27;;;1.40;;
16113;SDS011;8161;-33.910;151.156;2023-05-16T04:12:34;3.10;;;1.25;;
16113;SDS011;8161;-33.910;151.156;2023-05-16T04:15:02;3.70;;;1.60;;
16113;SDS011;8161;-33.910;151.156;2023-05-16T04:17:30;3.65;;;1.42;;
16113;SDS011;8161;-33.910;151.156;2023-05-16T04:19:57;3.40;;;1.42;;
16113;SDS011;8161;-33.910;151.156;2023-05-16T04:22:25;3.63;;;1.50;;
16113;SDS011;8161;-33.910;151.156;2023-05-16T04:24:52;3.53;;;1.33;;
16113;SDS011;8161;-33.910;151.156;2023-05-16T04:27:20;2.65;;;1.25;;
16113;SDS011;8161;-33.910;151.156;2023-05-16T04:29:48;3.00;;;1.40;;
16113;SDS011;8161;-33.910;151.156;2023-05-16T04:32:15;2.55;;;1.20;;
16113;SDS011;8161;-33.910;151.156;2023-05-16T04:34:42;3.85;;;1.23;;
16113;SDS011;8161;-33.910;151.156;2023-05-16T04:37:11;6.13;;;1.48;;
16113;SDS011;8161;-33.910;151.156;2023-05-16T04:39:38;3.25;;;1.50;;
16113;SDS011;8161;-33.910;151.156;2023-05-16T04:42:05;3.40;;;1.58;;
16113;SDS011;8161;-33.910;151.156;2023-05-16T04:44:32;5.43;;;1.58;;
16113;SDS011;8161;-33.910;151.156;2023-05-16T04:47:00;2.30;;;1.20;;
16113;SDS011;8161;-33.910;151.156;2023-05-16T04:49:27;1.60;;;1.20;;
16113;SDS011;8161;-33.910;151.156;2023-05-16T04:51:54;5.07;;;1.50;;
16113;SDS011;8161;-33.910;151.156;2023-05-16T04:54:21;2.95;;;1.40;;
16113;SDS011;8161;-33.910;151.156;2023-05-16T04:56:49;4.57;;;1.30;;
16113;SDS011;8161;-33.910;151.156;2023-05-16T04:59:16;2.90;;;1.40;;
16113;SDS011;8161;-33.910;151.156;2023-05-16T05:01:43;1.60;;;1.10;;
16113;SDS011;8161;-33.910;151.156;2023-05-16T05:04:10;3.08;;;1.30;;
16113;SDS011;8161;-33.910;151.156;2023-05-16T05:06:37;3.83;;;1.20;;
16113;SDS011;8161;-33.910;151.156;2023-05-16T05:09:05;3.58;;;1.25;;
16113;SDS011;8161;-33.910;151.156;2023-05-16T05:11:32;2.67;;;1.20;;
16113;SDS011;8161;-33.910;151.156;2023-05-16T05:14:00;4.20;;;1.40;;
16113;SDS011;8161;-33.910;151.156;2023-05-16T05:16:28;2.75;;;1.30;;
16113;SDS011;8161;-33.910;151.156;2023-05-16T05:18:55;1.92;;;1.20;;
16113;SDS011;8161;-33.910;151.156;2023-05-16T05:21:22;3.58;;;1.15;;
16113;SDS011;8161;-33.910;151.156;2023-05-16T05:23:50;2.97;;;1.27;;
16113;SDS011;8161;-33.910;151.156;2023-05-16T05:26:17;1.88;;;1.10;;
16113;SDS011;8161;-33.910;151.156;2023-05-16T05:28:47;3.15;;;1.20;;
16113;SDS011;8161;-33.910;151.156;2023-05-16T05:31:14;3.42;;;1.13;;
16113;SDS011;8161;-33.910;151.156;2023-05-16T05:33:41;2.28;;;1.20;;
16113;SDS011;8161;-33.910;151.156;2023-05-16T05:36:09;3.17;;;1.48;;
16113;SDS011;8161;-33.910;151.156;2023-05-16T05:38:36;2.10;;;1.10;;
16113;SDS011;8161;-33.910;151.156;2023-05-16T05:41:04;2.83;;;1.17;;
16113;SDS011;8161;-33.910;151.156;2023-05-16T05:43:31;3.28;;;1.50;;
16113;SDS011;8161;-33.910;151.156;2023-05-16T05:45:59;5.00;;;1.33;;
16113;SDS011;8161;-33.910;151.156;2023-05-16T05:48:27;2.50;;;1.20;;
16113;SDS011;8161;-33.910;151.156;2023-05-16T05:50:54;2.67;;;1.60;;
16113;SDS011;8161;-33.910;151.156;2023-05-16T05:53:22;2.53;;;1.27;;
16113;SDS011;8161;-33.910;151.156;2023-05-16T05:55:49;3.65;;;1.67;;
16113;SDS011;8161;-33.910;151.156;2023-05-16T05:58:16;2.40;;;1.23;;
16113;SDS011;8161;-33.910;151.156;2023-05-16T06:00:43;2.83;;;1.13;;
16113;SDS011;8161;-33.910;151.156;2023-05-16T06:03:10;2.15;;;1.48;;
16113;SDS011;8161;-33.910;151.156;2023-05-16T06:05:39;3.60;;;1.30;;
16113;SDS011;8161;-33.910;151.156;2023-05-16T06:08:09;2.30;;;1.20;;
16113;SDS011;8161;-33.910;151.156;2023-05-16T06:10:36;2.03;;;1.33;;
16113;SDS011;8161;-33.910;151.156;2023-05-16T06:13:03;4.03;;;1.63;;
16113;SDS011;8161;-33.910;151.156;2023-05-16T06:15:31;2.55;;;1.45;;
16113;SDS011;8161;-33.910;151.156;2023-05-16T06:17:58;2.33;;;1.27;;
16113;SDS011;8161;-33.910;151.156;2023-05-16T06:20:25;4.95;;;1.60;;
16113;SDS011;8161;-33.910;151.156;2023-05-16T06:22:55;4.70;;;1.33;;
16113;SDS011;8161;-33.910;151.156;2023-05-16T06:25:23;6.10;;;1.98;;
16113;SDS011;8161;-33.910;151.156;2023-05-16T06:27:50;4.03;;;1.35;;
16113;SDS011;8161;-33.910;151.156;2023-05-16T06:30:18;3.63;;;1.30;;
16113;SDS011;8161;-33.910;151.156;2023-05-16T06:32:45;2.90;;;1.35;;
16113;SDS011;8161;-33.910;151.156;2023-05-16T06:35:12;3.30;;;1.30;;
16113;SDS011;8161;-33.910;151.156;2023-05-16T06:37:39;3.65;;;1.45;;
16113;SDS011;8161;-33.910;151.156;2023-05-16T06:40:07;1.98;;;1.20;;
16113;SDS011;8161;-33.910;151.156;2023-05-16T06:42:34;2.03;;;1.40;;
16113;SDS011;8161;-33.910;151.156;2023-05-16T06:45:01;2.60;;;1.30;;
16113;SDS011;8161;-33.910;151.156;2023-05-16T06:47:28;2.78;;;1.25;;
16113;SDS011;8161;-33.910;151.156;2023-05-16T06:49:56;3.27;;;1.37;;
16113;SDS011;8161;-33.910;151.156;2023-05-16T06:52:23;3.55;;;1.20;;
16113;SDS011;8161;-33.910;151.156;2023-05-16T06:54:51;3.08;;;1.50;;
16113;SDS011;8161;-33.910;151.156;2023-05-16T06:57:18;3.10;;;1.40;;
16113;SDS011;8161;-33.910;151.156;2023-05-16T06:59:45;2.55;;;1.30;;
16113;SDS011;8161;-33.910;151.156;2023-05-16T07:02:12;2.78;;;1.50;;
16113;SDS011;8161;-33.910;151.156;2023-05-16T07:04:39;3.85;;;1.50;;
16113;SDS011;8161;-33.910;151.156;2023-05-16T07:07:07;2.33;;;1.30;;
16113;SDS011;8161;-33.910;151.156;2023-05-16T07:09:34;4.47;;;1.70;;
16113;SDS011;8161;-33.910;151.156;2023-05-16T07:12:01;4.80;;;1.50;;
16113;SDS011;8161;-33.910;151.156;2023-05-16T07:14:28;4.20;;;1.55;;
16113;SDS011;8161;-33.910;151.156;2023-05-16T07:16:56;3.92;;;1.70;;
16113;SDS011;8161;-33.910;151.156;2023-05-16T07:19:23;5.80;;;2.05;;
16113;SDS011;8161;-33.910;151.156;2023-05-16T07:21:50;5.10;;;2.00;;
16113;SDS011;8161;-33.910;151.156;2023-05-16T07:24:18;6.32;;;2.70;;
16113;SDS011;8161;-33.910;151.156;2023-05-16T07:26:45;5.28;;;2.20;;
16113;SDS011;8161;-33.910;151.156;2023-05-16T07:29:12;5.80;;;2.30;;
16113;SDS011;8161;-33.910;151.156;2023-05-16T07:31:40;5.67;;;2.63;;
16113;SDS011;8161;-33.910;151.156;2023-05-16T07:34:08;4.38;;;2.35;;
16113;SDS011;8161;-33.910;151.156;2023-05-16T07:36:35;6.10;;;2.50;;
16113;SDS011;8161;-33.910;151.156;2023-05-16T07:39:03;5.80;;;1.90;;
16113;SDS011;8161;-33.910;151.156;2023-05-16T07:41:30;5.72;;;2.25;;
16113;SDS011;8161;-33.910;151.156;2023-05-16T07:43:58;4.50;;;2.00;;
16113;SDS011;8161;-33.910;151.156;2023-05-16T07:46:25;7.32;;;2.00;;
16113;SDS011;8161;-33.910;151.156;2023-05-16T07:48:52;4.95;;;2.03;;
16113;SDS011;8161;-33.910;151.156;2023-05-16T07:51:19;4.65;;;2.00;;
16113;SDS011;8161;-33.910;151.156;2023-05-16T07:53:47;7.45;;;2.45;;
16113;SDS011;8161;-33.910;151.156;2023-05-16T07:56:16;4.00;;;1.90;;
16113;SDS011;8161;-33.910;151.156;2023-05-16T07:58:44;4.20;;;1.80;;
16113;SDS011;8161;-33.910;151.156;2023-05-16T08:01:13;6.72;;;2.30;;
16113;SDS011;8161;-33.910;151.156;2023-05-16T08:03:41;10.52;;;3.60;;
16113;SDS011;8161;-33.910;151.156;2023-05-16T08:06:08;9.07;;;3.67;;
16113;SDS011;8161;-33.910;151.156;2023-05-16T08:08:35;9.18;;;3.10;;
16113;SDS011;8161;-33.910;151.156;2023-05-16T08:11:03;5.30;;;2.50;;
16113;SDS011;8161;-33.910;151.156;2023-05-16T08:13:30;5.22;;;2.33;;
16113;SDS011;8161;-33.910;151.156;2023-05-16T08:15:57;5.75;;;2.30;;
16113;SDS011;8161;-33.910;151.156;2023-05-16T08:18:25;5.32;;;2.10;;
16113;SDS011;8161;-33.910;151.156;2023-05-16T08:20:55;3.97;;;2.00;;
16113;SDS011;8161;-33.910;151.156;2023-05-16T08:23:22;5.53;;;2.30;;
16113;SDS011;8161;-33.910;151.156;2023-05-16T08:25:49;5.70;;;2.17;;
16113;SDS011;8161;-33.910;151.156;2023-05-16T08:28:16;7.00;;;2.90;;
16113;SDS011;8161;-33.910;151.156;2023-05-16T08:30:43;6.70;;;3.47;;
16113;SDS011;8161;-33.910;151.156;2023-05-16T08:33:11;9.00;;;4.60;;
16113;SDS011;8161;-33.910;151.156;2023-05-16T08:35:43;7.95;;;4.50;;
16113;SDS011;8161;-33.910;151.156;2023-05-16T08:38:13;8.32;;;4.20;;
16113;SDS011;8161;-33.910;151.156;2023-05-16T08:40:41;11.45;;;4.45;;
16113;SDS011;8161;-33.910;151.156;2023-05-16T08:43:08;6.82;;;3.97;;
16113;SDS011;8161;-33.910;151.156;2023-05-16T08:45:36;9.57;;;4.40;;
16113;SDS011;8161;-33.910;151.156;2023-05-16T08:48:04;8.18;;;3.65;;
16113;SDS011;8161;-33.910;151.156;2023-05-16T08:50:31;5.53;;;3.05;;
16113;SDS011;8161;-33.910;151.156;2023-05-16T08:53:06;5.18;;;3.30;;
16113;SDS011;8161;-33.910;151.156;2023-05-16T08:55:34;6.40;;;3.50;;
16113;SDS011;8161;-33.910;151.156;2023-05-16T08:58:02;6.88;;;3.30;;
16113;SDS011;8161;-33.910;151.156;2023-05-16T09:00:30;7.53;;;3.30;;
16113;SDS011;8161;-33.910;151.156;2023-05-16T09:02:57;8.02;;;3.58;;
16113;SDS011;8161;-33.910;151.156;2023-05-16T09:05:25;7.80;;;3.55;;
16113;SDS011;8161;-33.910;151.156;2023-05-16T09:07:54;6.75;;;3.22;;
16113;SDS011;8161;-33.910;151.156;2023-05-16T09:10:25;6.07;;;2.90;;
16113;SDS011;8161;-33.910;151.156;2023-05-16T09:12:52;6.25;;;3.05;;
16113;SDS011;8161;-33.910;151.156;2023-05-16T09:15:19;6.18;;;3.50;;
16113;SDS011;8161;-33.910;151.156;2023-05-16T09:17:46;9.90;;;3.90;;
16113;SDS011;8161;-33.910;151.156;2023-05-16T09:20:15;10.83;;;3.97;;
16113;SDS011;8161;-33.910;151.156;2023-05-16T09:22:52;7.10;;;3.25;;
16113;SDS011;8161;-33.910;151.156;2023-05-16T09:25:22;6.80;;;3.65;;
16113;SDS011;8161;-33.910;151.156;2023-05-16T09:27:56;10.10;;;4.57;;
16113;SDS011;8161;-33.910;151.156;2023-05-16T09:30:30;6.72;;;3.78;;
16113;SDS011;8161;-33.910;151.156;2023-05-16T09:32:59;8.43;;;4.03;;
16113;SDS011;8161;-33.910;151.156;2023-05-16T09:35:26;6.40;;;3.40;;
16113;SDS011;8161;-33.910;151.156;2023-05-16T09:37:53;5.20;;;2.97;;
16113;SDS011;8161;-33.910;151.156;2023-05-16T09:40:21;5.70;;;3.10;;
16113;SDS011;8161;-33.910;151.156;2023-05-16T09:45:30;9.43;;;3.90;;
16113;SDS011;8161;-33.910;151.156;2023-05-16T09:48:04;7.95;;;3.40;;
16113;SDS011;8161;-33.910;151.156;2023-05-16T09:50:34;7.22;;;3.15;;
16113;SDS011;8161;-33.910;151.156;2023-05-16T09:53:01;5.72;;;2.92;;
16113;SDS011;8161;-33.910;151.156;2023-05-16T09:55:29;6.07;;;3.08;;
16113;SDS011;8161;-33.910;151.156;2023-05-16T09:57:57;7.93;;;2.85;;
16113;SDS011;8161;-33.910;151.156;2023-05-16T10:00:30;6.43;;;2.95;;
16113;SDS011;8161;-33.910;151.156;2023-05-16T10:03:01;7.85;;;3.17;;
16113;SDS011;8161;-33.910;151.156;2023-05-16T10:05:29;6.95;;;3.10;;
16113;SDS011;8161;-33.910;151.156;2023-05-16T10:07:57;6.85;;;3.20;;
16113;SDS011;8161;-33.910;151.156;2023-05-16T10:10:27;7.72;;;3.10;;
16113;SDS011;8161;-33.910;151.156;2023-05-16T10:12:55;5.20;;;2.63;;
16113;SDS011;8161;-33.910;151.156;2023-05-16T10:15:25;6.45;;;2.92;;
16113;SDS011;8161;-33.910;151.156;2023-05-16T10:17:54;8.13;;;2.70;;
16113;SDS011;8161;-33.910;151.156;2023-05-16T10:20:24;6.47;;;2.90;;
16113;SDS011;8161;-33.910;151.156;2023-05-16T10:22:52;7.47;;;2.65;;
16113;SDS011;8161;-33.910;151.156;2023-05-16T10:25:24;6.60;;;2.50;;
16113;SDS011;8161;-33.910;151.156;2023-05-16T10:27:59;5.45;;;2.75;;
16113;SDS011;8161;-33.910;151.156;2023-05-16T10:30:28;6.75;;;2.60;;
16113;SDS011;8161;-33.910;151.156;2023-05-16T10:32:58;6.90;;;3.20;;
16113;SDS011;8161;-33.910;151.156;2023-05-16T10:35:27;6.93;;;3.15;;
16113;SDS011;8161;-33.910;151.156;2023-05-16T10:37:55;7.75;;;3.60;;
16113;SDS011;8161;-33.910;151.156;2023-05-16T10:40:26;6.22;;;3.40;;
16113;SDS011;8161;-33.910;151.156;2023-05-16T10:43:01;6.90;;;3.33;;
16113;SDS011;8161;-33.910;151.156;2023-05-16T10:45:31;5.97;;;3.13;;
16113;SDS011;8161;-33.910;151.156;2023-05-16T10:47:59;8.53;;;3.60;;
16113;SDS011;8161;-33.910;151.156;2023-05-16T10:55:50;6.97;;;3.10;;
16113;SDS011;8161;-33.910;151.156;2023-05-16T11:01:33;6.53;;;3.13;;
16113;SDS011;8161;-33.910;151.156;2023-05-16T11:06:24;4.97;;;2.97;;
16113;SDS011;8161;-33.910;151.156;2023-05-16T11:14:16;5.70;;;3.20;;
16113;SDS011;8161;-33.910;151.156;2023-05-16T11:17:19;8.23;;;3.20;;
16113;SDS011;8161;-33.910;151.156;2023-05-16T11:24:37;6.30;;;3.03;;
16113;SDS011;8161;-33.910;151.156;2023-05-16T11:27:04;7.45;;;3.28;;
16113;SDS011;8161;-33.910;151.156;2023-05-16T11:29:33;7.70;;;3.43;;
16113;SDS011;8161;-33.910;151.156;2023-05-16T11:32:01;5.40;;;3.10;;
16113;SDS011;8161;-33.910;151.156;2023-05-16T11:34:30;7.05;;;3.60;;
16113;SDS011;8161;-33.910;151.156;2023-05-16T11:37:04;7.23;;;3.40;;
16113;SDS011;8161;-33.910;151.156;2023-05-16T11:39:31;6.53;;;3.30;;
16113;SDS011;8161;-33.910;151.156;2023-05-16T11:41:58;5.77;;;3.17;;
16113;SDS011;8161;-33.910;151.156;2023-05-16T11:44:26;7.47;;;3.30;;
16113;SDS011;8161;-33.910;151.156;2023-05-16T11:46:54;6.18;;;3.55;;
16113;SDS011;8161;-33.910;151.156;2023-05-16T11:49:21;10.15;;;3.90;;
16113;SDS011;8161;-33.910;151.156;2023-05-16T11:51:53;7.70;;;3.88;;
16113;SDS011;8161;-33.910;151.156;2023-05-16T11:54:22;5.78;;;3.20;;
16113;SDS011;8161;-33.910;151.156;2023-05-16T11:56:50;6.25;;;3.42;;
16113;SDS011;8161;-33.910;151.156;2023-05-16T11:59:17;8.02;;;3.75;;
16113;SDS011;8161;-33.910;151.156;2023-05-16T12:01:45;7.18;;;3.45;;
16113;SDS011;8161;-33.910;151.156;2023-05-16T12:04:15;5.40;;;3.30;;
16113;SDS011;8161;-33.910;151.156;2023-05-16T12:06:49;7.25;;;3.95;;
16113;SDS011;8161;-33.910;151.156;2023-05-16T12:09:25;7.77;;;3.90;;
16113;SDS011;8161;-33.910;151.156;2023-05-16T12:11:52;7.85;;;4.15;;
16113;SDS011;8161;-33.910;151.156;2023-05-16T12:14:19;6.83;;;3.90;;
16113;SDS011;8161;-33.910;151.156;2023-05-16T12:16:46;9.27;;;4.20;;
16113;SDS011;8161;-33.910;151.156;2023-05-16T12:19:14;7.75;;;4.13;;
16113;SDS011;8161;-33.910;151.156;2023-05-16T12:21:42;10.38;;;4.50;;
16113;SDS011;8161;-33.910;151.156;2023-05-16T12:24:10;8.33;;;4.17;;
16113;SDS011;8161;-33.910;151.156;2023-05-16T12:26:38;8.95;;;4.15;;
16113;SDS011;8161;-33.910;151.156;2023-05-16T12:29:07;8.43;;;4.15;;
16113;SDS011;8161;-33.910;151.156;2023-05-16T12:31:36;7.00;;;4.32;;
16113;SDS011;8161;-33.910;151.156;2023-05-16T12:34:04;8.40;;;4.43;;
16113;SDS011;8161;-33.910;151.156;2023-05-16T12:36:41;10.27;;;4.88;;
16113;SDS011;8161;-33.910;151.156;2023-05-16T12:39:10;5.60;;;3.15;;
16113;SDS011;8161;-33.910;151.156;2023-05-16T12:41:41;7.28;;;3.00;;
16113;SDS011;8161;-33.910;151.156;2023-05-16T12:44:15;10.40;;;2.95;;
16113;SDS011;8161;-33.910;151.156;2023-05-16T12:46:49;9.63;;;2.87;;
16113;SDS011;8161;-33.910;151.156;2023-05-16T12:49:20;14.05;;;2.80;;
16113;SDS011;8161;-33.910;151.156;2023-05-16T12:51:48;12.50;;;2.63;;
16113;SDS011;8161;-33.910;151.156;2023-05-16T12:54:20;13.40;;;2.88;;
16113;SDS011;8161;-33.910;151.156;2023-05-16T12:56:49;15.25;;;2.65;;
16113;SDS011;8161;-33.910;151.156;2023-05-16T12:59:17;12.95;;;2.95;;
16113;SDS011;8161;-33.910;151.156;2023-05-16T13:01:44;14.35;;;3.60;;
16113;SDS011;8161;-33.910;151.156;2023-05-16T13:04:11;15.82;;;3.20;;
16113;SDS011;8161;-33.910;151.156;2023-05-16T13:06:43;11.23;;;2.13;;
16113;SDS011;8161;-33.910;151.156;2023-05-16T13:09:11;7.78;;;2.03;;
16113;SDS011;8161;-33.910;151.156;2023-05-16T13:11:38;5.93;;;1.60;;
16113;SDS011;8161;-33.910;151.156;2023-05-16T13:14:05;4.78;;;1.23;;
16113;SDS011;8161;-33.910;151.156;2023-05-16T13:16:32;5.80;;;1.40;;
16113;SDS011;8161;-33.910;151.156;2023-05-16T13:19:00;5.18;;;1.70;;
16113;SDS011;8161;-33.910;151.156;2023-05-16T13:21:27;5.47;;;1.10;;
16113;SDS011;8161;-33.910;151.156;2023-05-16T13:23:56;12.40;;;1.45;;
16113;SDS011;8161;-33.910;151.156;2023-05-16T13:26:24;6.43;;;1.50;;
16113;SDS011;8161;-33.910;151.156;2023-05-16T13:28:52;7.50;;;1.80;;
16113;SDS011;8161;-33.910;151.156;2023-05-16T13:31:20;6.72;;;1.45;;
16113;SDS011;8161;-33.910;151.156;2023-05-16T13:33:47;7.28;;;1.75;;
16113;SDS011;8161;-33.910;151.156;2023-05-16T13:36:18;9.23;;;1.90;;
16113;SDS011;8161;-33.910;151.156;2023-05-16T13:38:45;11.13;;;2.30;;
16113;SDS011;8161;-33.910;151.156;2023-05-16T13:41:13;12.23;;;2.53;;
16113;SDS011;8161;-33.910;151.156;2023-05-16T13:43:40;14.85;;;2.83;;
16113;SDS011;8161;-33.910;151.156;2023-05-16T13:46:07;19.05;;;2.95;;
16113;SDS011;8161;-33.910;151.156;2023-05-16T13:48:34;26.60;;;3.70;;
16113;SDS011;8161;-33.910;151.156;2023-05-16T13:51:01;24.73;;;3.83;;
16113;SDS011;8161;-33.910;151.156;2023-05-16T13:53:28;18.92;;;3.10;;
16113;SDS011;8161;-33.910;151.156;2023-05-16T13:55:56;23.52;;;4.43;;
16113;SDS011;8161;-33.910;151.156;2023-05-16T13:58:23;19.85;;;3.00;;
16113;SDS011;8161;-33.910;151.156;2023-05-16T14:00:51;19.42;;;3.35;;
16113;SDS011;8161;-33.910;151.156;2023-05-16T14:03:18;19.08;;;3.20;;
16113;SDS011;8161;-33.910;151.156;2023-05-16T14:05:47;15.93;;;2.85;;
16113;SDS011;8161;-33.910;151.156;2023-05-16T14:08:14;13.20;;;2.55;;
16113;SDS011;8161;-33.910;151.156;2023-05-16T14:10:41;10.90;;;2.35;;
16113;SDS011;8161;-33.910;151.156;2023-05-16T14:13:09;13.20;;;2.35;;
16113;SDS011;8161;-33.910;151.156;2023-05-16T14:15:36;32.72;;;3.60;;
16113;SDS011;8161;-33.910;151.156;2023-05-16T14:18:04;11.77;;;1.50;;
16113;SDS011;8161;-33.910;151.156;2023-05-16T14:20:32;10.00;;;1.95;;
16113;SDS011;8161;-33.910;151.156;2023-05-16T14:22:59;9.25;;;1.90;;
16113;SDS011;8161;-33.910;151.156;2023-05-16T14:25:26;12.77;;;2.40;;
16113;SDS011;8161;-33.910;151.156;2023-05-16T14:27:53;8.65;;;2.42;;
16113;SDS011;8161;-33.910;151.156;2023-05-16T14:30:20;11.68;;;2.40;;
16113;SDS011;8161;-33.910;151.156;2023-05-16T14:32:51;11.18;;;1.83;;
16113;SDS011;8161;-33.910;151.156;2023-05-16T14:35:18;12.17;;;2.00;;
16113;SDS011;8161;-33.910;151.156;2023-05-16T14:37:45;11.77;;;3.13;;
16113;SDS011;8161;-33.910;151.156;2023-05-16T14:40:13;13.18;;;2.42;;
16113;SDS011;8161;-33.910;151.156;2023-05-16T14:42:40;15.33;;;2.83;;
16113;SDS011;8161;-33.910;151.156;2023-05-16T14:45:07;14.27;;;2.83;;
16113;SDS011;8161;-33.910;151.156;2023-05-16T14:47:35;13.70;;;2.55;;
16113;SDS011;8161;-33.910;151.156;2023-05-16T14:50:02;12.27;;;2.47;;
16113;SDS011;8161;-33.910;151.156;2023-05-16T14:52:30;13.15;;;2.90;;
16113;SDS011;8161;-33.910;151.156;2023-05-16T14:54:57;10.13;;;2.10;;
16113;SDS011;8161;-33.910;151.156;2023-05-16T14:57:25;11.00;;;2.15;;
16113;SDS011;8161;-33.910;151.156;2023-05-16T14:59:52;12.30;;;2.38;;
16113;SDS011;8161;-33.910;151.156;2023-05-16T15:02:19;16.25;;;2.85;;
16113;SDS011;8161;-33.910;151.156;2023-05-16T15:04:47;14.10;;;2.33;;
16113;SDS011;8161;-33.910;151.156;2023-05-16T15:07:14;21.63;;;3.03;;